Time;durP1;ratioP1;P1;durP2;ratioP2;P2;SDS_P1;SDS_P2;PMS_P1;PMS_P2;Temp;Humidity;BMP_temperature;BMP_pressure;BME280_temperature;BME280_humidity;BME280_pressure;Samples;Min_cycle;Max_cycle;Signal;HPM_P1;HPM_P2
2022/01/01 00:02:40;;;;;;;11.4;14.8;;;;;;;10.8;80.5;98680;;;;
2022/01/01 00:13:40;;;;;;;11.4;14.8;;;;;;;10.7;81.4;98690;;;;
2022/01/01 00:24:41;;;;;;;11.4;14.8;;;;;;;10.5;82.7;98680;;;;
2022/01/01 00:34:40;;;;;;;11;14.6;;;;;;;10.6;83;98680;;;;
2022/01/01 00:44:40;;;;;;;11;14.6;;;;;;;10.5;83.2;98690;;;;
2022/01/01 00:55:40;;;;;;;10.3;13.3;;;;;;;10.5;83.5;98690;;;;
2022/01/01 01:05:40;;;;;;;10.3;13.3;;;;;;;10.4;83.9;98700;;;;
2022/01/01 01:16:40;;;;;;;10.3;13.3;;;;;;;10.4;83.9;98710;;;;
2022/01/01 01:26:47;;;;;;;11.3;14.7;;;;;;;10.4;83.8;98700;;;;
2022/01/01 01:37:40;;;;;;;11.3;14.7;;;;;;;10.4;83.9;98710;;;;
2022/01/01 01:47:41;;;;;;;11.3;14.7;;;;;;;10.4;84.2;98730;;;;
2022/01/01 01:58:40;;;;;;;10.4;12.7;;;;;;;10.4;83.7;98750;;;;
2022/01/01 02:08:40;;;;;;;10.4;12.7;;;;;;;10.4;83.7;98760;;;;
2022/01/01 02:19:40;;;;;;;10.4;12.7;;;;;;;10.4;83.9;98780;;;;
2022/01/01 02:29:40;;;;;;;13.5;18.7;;;;;;;10.4;83.8;98790;;;;
2022/01/01 02:40:40;;;;;;;13.5;18.7;;;;;;;10.4;84.3;98810;;;;
2022/01/01 02:50:40;;;;;;;13.5;18.7;;;;;;;10.4;84.8;98800;;;;
2022/01/01 03:00:41;;;;;;;14.4;17;;;;;;;10.3;85.2;98810;;;;
2022/01/01 03:11:40;;;;;;;14.4;17;;;;;;;10.4;85.1;98810;;;;
2022/01/01 03:21:41;;;;;;;14.4;17;;;;;;;10.3;85.5;98820;;;;
2022/01/01 03:32:41;;;;;;;13.3;17.9;;;;;;;10.4;85.5;98820;;;;
2022/01/01 03:42:40;;;;;;;13.3;17.9;;;;;;;10.5;85.3;98840;;;;
2022/01/01 03:52:41;;;;;;;13.3;17.9;;;;;;;10.5;85.1;98850;;;;
2022/01/01 04:03:40;;;;;;;10.1;12.2;;;;;;;10.5;85.1;98870;;;;
2022/01/01 04:14:41;;;;;;;10.1;12.2;;;;;;;10.5;85.1;98880;;;;
2022/01/01 04:24:41;;;;;;;9.5;12.5;;;;;;;10.6;85.4;98880;;;;
2022/01/01 04:34:41;;;;;;;9.5;12.5;;;;;;;10.6;85.5;98890;;;;
2022/01/01 04:45:40;;;;;;;9.5;12.5;;;;;;;10.6;85.5;98890;;;;
2022/01/01 04:56:43;;;;;;;8.4;10.4;;;;;;;10.6;85.5;98900;;;;
2022/01/01 05:07:43;;;;;;;8.4;10.4;;;;;;;10.6;85.2;98900;;;;
2022/01/01 05:17:40;;;;;;;8.4;10.4;;;;;;;10.7;85.4;98900;;;;
2022/01/01 05:28:41;;;;;;;8.1;11.4;;;;;;;10.6;85.4;98910;;;;
2022/01/01 05:38:41;;;;;;;8.1;11.4;;;;;;;10.6;85.2;98920;;;;
2022/01/01 05:48:41;;;;;;;8.1;11.4;;;;;;;10.7;85.3;98940;;;;
2022/01/01 05:59:41;;;;;;;7.7;11;;;;;;;10.6;85.5;98950;;;;
2022/01/01 06:10:40;;;;;;;7.7;11;;;;;;;10.7;85;98950;;;;
2022/01/01 06:21:41;;;;;;;7.7;11;;;;;;;10.6;85.1;98960;;;;
2022/01/01 06:32:41;;;;;;;6.3;8.7;;;;;;;10.6;85.2;98970;;;;
2022/01/01 06:42:41;;;;;;;6.3;8.7;;;;;;;10.6;85.3;98980;;;;
2022/01/01 06:53:41;;;;;;;6.3;8.7;;;;;;;10.6;85.2;99000;;;;
2022/01/01 07:04:41;;;;;;;4.5;6.9;;;;;;;10.5;85.3;99000;;;;
2022/01/01 07:15:41;;;;;;;4.5;6.9;;;;;;;10.6;85.3;99030;;;;
2022/01/01 07:26:41;;;;;;;5.4;7.4;;;;;;;10.6;85;99040;;;;
2022/01/01 07:37:41;;;;;;;5.4;7.4;;;;;;;10.6;84.9;99050;;;;
2022/01/01 07:48:41;;;;;;;5.4;7.4;;;;;;;10.7;84.6;99060;;;;
2022/01/01 07:59:41;;;;;;;7.4;10;;;;;;;10.7;84.5;99070;;;;
2022/01/01 08:09:41;;;;;;;7.4;10;;;;;;;10.8;84.1;99080;;;;
2022/01/01 08:19:42;;;;;;;7.4;10;;;;;;;10.8;84.1;99090;;;;
2022/01/01 08:30:41;;;;;;;7.7;10.7;;;;;;;10.9;83.8;99100;;;;
2022/01/01 08:41:41;;;;;;;7.7;10.7;;;;;;;10.9;83.8;99100;;;;
2022/01/01 08:52:41;;;;;;;7.7;10.7;;;;;;;11;84.1;99110;;;;
2022/01/01 09:02:41;;;;;;;6.3;9.8;;;;;;;11;84;99120;;;;
2022/01/01 09:13:42;;;;;;;6.3;9.8;;;;;;;11;84.3;99120;;;;
2022/01/01 09:24:41;;;;;;;5.8;9.5;;;;;;;11;84.5;99130;;;;
2022/01/01 09:34:41;;;;;;;5.8;9.5;;;;;;;11;84.3;99140;;;;
2022/01/01 09:45:41;;;;;;;5.8;9.5;;;;;;;11.1;84.3;99140;;;;
2022/01/01 09:55:41;;;;;;;6;9;;;;;;;11.1;83.8;99150;;;;
2022/01/01 10:05:41;;;;;;;6;9;;;;;;;11.1;83.7;99160;;;;
2022/01/01 10:16:41;;;;;;;6;9;;;;;;;11.2;83.7;99160;;;;
2022/01/01 10:27:45;;;;;;;7.4;10.4;;;;;;;11.2;83.6;99160;;;;
2022/01/01 10:36:41;;;;;;;7.4;10.4;;;;;;;11.2;83.1;99170;;;;
2022/01/01 10:46:41;;;;;;;7.4;10.4;;;;;;;11.2;83.3;99150;;;;
2022/01/01 10:57:41;;;;;;;8.4;10.3;;;;;;;11.3;83.7;99160;;;;
2022/01/01 11:07:41;;;;;;;8.4;10.3;;;;;;;11.3;84;99160;;;;
2022/01/01 11:18:41;;;;;;;8.4;10.3;;;;;;;11.2;84.5;99170;;;;
2022/01/01 11:28:41;;;;;;;9;11.8;;;;;;;11.2;84.3;99160;;;;
2022/01/01 11:39:41;;;;;;;9;11.8;;;;;;;11.2;84;99160;;;;
2022/01/01 11:49:41;;;;;;;9;11.8;;;;;;;11.3;83.3;99150;;;;
2022/01/01 11:59:41;;;;;;;10.2;15.5;;;;;;;11.4;82.7;99160;;;;
2022/01/01 12:10:41;;;;;;;10.2;15.5;;;;;;;11.5;82.6;99160;;;;
2022/01/01 12:21:41;;;;;;;10.2;15.5;;;;;;;11.3;83.4;99170;;;;
2022/01/01 12:32:44;;;;;;;11.6;14.1;;;;;;;11.2;84;99170;;;;
2022/01/01 12:42:41;;;;;;;11.6;14.1;;;;;;;11.1;84.4;99170;;;;
2022/01/01 12:52:41;;;;;;;11.6;14.1;;;;;;;11.1;84;99170;;;;
2022/01/01 13:02:41;;;;;;;13.7;18.1;;;;;;;11.2;83.6;99190;;;;
2022/01/01 13:12:41;;;;;;;13.7;18.1;;;;;;;11.1;83.6;99190;;;;
2022/01/01 13:22:41;;;;;;;13.7;18.1;;;;;;;11;83.8;99200;;;;
2022/01/01 13:33:41;;;;;;;14.5;17.1;;;;;;;11.1;83.9;99210;;;;
2022/01/01 13:44:42;;;;;;;14.5;17.1;;;;;;;11;84.1;99230;;;;
2022/01/01 13:54:41;;;;;;;15.3;18.6;;;;;;;11;84.2;99230;;;;
2022/01/01 14:05:41;;;;;;;15.3;18.6;;;;;;;10.9;84.5;99250;;;;
2022/01/01 14:16:41;;;;;;;15.3;18.6;;;;;;;10.9;84.4;99270;;;;
2022/01/01 14:26:41;;;;;;;13.7;16.8;;;;;;;10.8;84.4;99280;;;;
2022/01/01 14:37:41;;;;;;;13.7;16.8;;;;;;;10.8;84.1;99290;;;;
2022/01/01 14:47:41;;;;;;;13.7;16.8;;;;;;;10.8;83.9;99290;;;;
2022/01/01 14:58:41;;;;;;;11.5;15.1;;;;;;;10.7;83.7;99320;;;;
2022/01/01 15:09:42;;;;;;;11.5;15.1;;;;;;;10.8;83;99330;;;;
2022/01/01 15:20:41;;;;;;;11.5;15.1;;;;;;;10.7;83.8;99340;;;;
2022/01/01 15:30:42;;;;;;;9.7;12.8;;;;;;;10.6;84.2;99360;;;;
2022/01/01 15:40:53;;;;;;;9.7;12.8;;;;;;;10.6;84.5;99370;;;;
2022/01/01 15:51:41;;;;;;;9.7;12.8;;;;;;;10.5;84.7;99390;;;;
2022/01/01 16:02:41;;;;;;;12.9;15;;;;;;;10.4;85.1;99400;;;;
2022/01/01 16:13:41;;;;;;;12.9;15;;;;;;;10.4;85.3;99390;;;;
2022/01/01 16:23:41;;;;;;;12.8;16.1;;;;;;;10.4;85.3;99390;;;;
2022/01/01 16:33:41;;;;;;;12.8;16.1;;;;;;;10.4;84.8;99400;;;;
2022/01/01 16:44:41;;;;;;;12.8;16.1;;;;;;;10.4;84.4;99410;;;;
2022/01/01 16:55:41;;;;;;;14.5;20.8;;;;;;;10.4;84.3;99420;;;;
2022/01/01 17:06:45;;;;;;;14.5;20.8;;;;;;;10.4;84.6;99420;;;;
2022/01/01 17:16:46;;;;;;;14.5;20.8;;;;;;;10.3;85.2;99420;;;;
2022/01/01 17:26:46;;;;;;;15.9;20.9;;;;;;;10.4;84.9;99420;;;;
2022/01/01 17:37:03;;;;;;;15.9;20.9;;;;;;;10.3;85;99430;;;;
2022/01/01 17:46:41;;;;;;;15.9;20.9;;;;;;;10.4;84.9;99430;;;;
2022/01/01 17:57:41;;;;;;;18.9;22.3;;;;;;;10.3;84.8;99450;;;;
2022/01/01 18:08:41;;;;;;;18.9;22.3;;;;;;;10.3;84.6;99450;;;;
2022/01/01 18:19:41;;;;;;;18.9;22.3;;;;;;;10.3;84.5;99450;;;;
2022/01/01 18:30:41;;;;;;;18.6;28.9;;;;;;;10.3;84.6;99470;;;;
2022/01/01 18:40:41;;;;;;;18.6;28.9;;;;;;;10.4;84.6;99480;;;;
2022/01/01 18:51:41;;;;;;;18.6;28.9;;;;;;;10.3;84.6;99490;;;;
2022/01/01 19:02:41;;;;;;;17.3;19.3;;;;;;;10.4;84.3;99480;;;;
2022/01/01 19:12:41;;;;;;;17.3;19.3;;;;;;;10.4;84.3;99490;;;;
2022/01/01 19:23:41;;;;;;;21.3;26.3;;;;;;;10.4;84.3;99510;;;;
2022/01/01 19:33:41;;;;;;;21.3;26.3;;;;;;;10.4;84.3;99510;;;;
2022/01/01 19:44:41;;;;;;;21.3;26.3;;;;;;;10.4;84.3;99520;;;;
2022/01/01 19:54:41;;;;;;;25.6;31.3;;;;;;;10.4;83.9;99530;;;;
2022/01/01 20:05:41;;;;;;;25.6;31.3;;;;;;;10.4;83.9;99540;;;;
2022/01/01 20:16:42;;;;;;;25.6;31.3;;;;;;;10.4;83.6;99540;;;;
2022/01/01 20:26:41;;;;;;;25.5;31.2;;;;;;;10.4;83.6;99550;;;;
2022/01/01 20:36:42;;;;;;;25.5;31.2;;;;;;;10.4;83.7;99560;;;;
2022/01/01 20:46:41;;;;;;;25.5;31.2;;;;;;;10.4;83.7;99560;;;;
2022/01/01 20:57:41;;;;;;;25.1;31.1;;;;;;;10.2;84.2;99560;;;;
2022/01/01 21:07:41;;;;;;;25.1;31.1;;;;;;;10.2;84.1;99570;;;;
2022/01/01 21:17:42;;;;;;;25.1;31.1;;;;;;;10.3;83.8;99560;;;;
2022/01/01 21:28:41;;;;;;;22.8;28.1;;;;;;;10.2;83.3;99570;;;;
2022/01/01 21:38:41;;;;;;;22.8;28.1;;;;;;;10.2;83.1;99560;;;;
2022/01/01 21:48:41;;;;;;;22.8;28.1;;;;;;;10.2;82.9;99570;;;;
2022/01/01 21:58:41;;;;;;;21;28.2;;;;;;;10.2;82.8;99580;;;;
2022/01/01 22:09:41;;;;;;;21;28.2;;;;;;;10.3;82.9;99580;;;;
2022/01/01 22:19:41;;;;;;;21;28.2;;;;;;;10.3;82.9;99580;;;;
2022/01/01 22:29:41;;;;;;;24.2;28.7;;;;;;;10.4;82.6;99580;;;;
2022/01/01 22:39:41;;;;;;;24.2;28.7;;;;;;;10.4;82.8;99590;;;;
2022/01/01 22:49:41;;;;;;;24.2;28.7;;;;;;;10.4;82.6;99580;;;;
2022/01/01 22:59:41;;;;;;;24.4;28.2;;;;;;;10.4;82.6;99580;;;;
2022/01/01 23:09:41;;;;;;;24.4;28.2;;;;;;;10.4;82.6;99570;;;;
2022/01/01 23:19:41;;;;;;;24.4;28.2;;;;;;;10.4;82.4;99570;;;;
2022/01/01 23:30:41;;;;;;;26.9;36.2;;;;;;;10.4;82.4;99560;;;;
2022/01/01 23:40:41;;;;;;;26.9;36.2;;;;;;;10.4;82.5;99560;;;;
2022/01/01 23:50:41;;;;;;;26.9;36.2;;;;;;;10.4;82.6;99560;;;;
